sensor_id;sensor_type;location;lat;lon;timestamp;pressure;altitude;pressure_sealevel;temperature;humidity
13387;BME280;6763;48.524;9.044;2023-12-14T00:01:33;96738.78;;;9.75;63.37
13387;BME280;6763;48.524;9.044;2023-12-14T00:03:58;96697.41;;;9.51;63.30
13387;BME280;6763;48.524;9.044;2023-12-14T00:06:23;96701.53;;;9.56;63.60
13387;BME280;6763;48.524;9.044;2023-12-14T00:08:48;96698.28;;;9.50;63.49
13387;BME280;6763;48.524;9.044;2023-12-14T00:11:14;96727.03;;;9.67;63.22
13387;BME280;6763;48.524;9.044;2023-12-14T00:13:39;96700.06;;;9.48;63.32
13387;BME280;6763;48.524;9.044;2023-12-14T00:16:05;96729.50;;;9.70;63.59
13387;BME280;6763;48.524;9.044;2023-12-14T00:18:30;96711.97;;;9.53;63.10
13387;BME280;6763;48.524;9.044;2023-12-14T00:20:56;96732.09;;;9.70;63.62
13387;BME280;6763;48.524;9.044;2023-12-14T00:23:22;96753.31;;;9.79;63.34
13387;BME280;6763;48.524;9.044;2023-12-14T00:25:47;96723.78;;;9.60;63.27
13387;BME280;6763;48.524;9.044;2023-12-14T00:28:13;96743.31;;;9.69;63.28
13387;BME280;6763;48.524;9.044;2023-12-14T00:30:38;96771.34;;;9.81;63.30
13387;BME280;6763;48.524;9.044;2023-12-14T00:33:04;96762.19;;;9.71;63.20
13387;BME280;6763;48.524;9.044;2023-12-14T00:35:29;96751.22;;;9.64;63.67
13387;BME280;6763;48.524;9.044;2023-12-14T00:37:54;96757.19;;;9.66;63.38
13387;BME280;6763;48.524;9.044;2023-12-14T00:40:19;96667.84;;;9.05;63.22
13387;BME280;6763;48.524;9.044;2023-12-14T00:42:45;96707.50;;;9.30;63.66
13387;BME280;6763;48.524;9.044;2023-12-14T00:45:10;96770.16;;;9.65;63.25
13387;BME280;6763;48.524;9.044;2023-12-14T00:47:35;96690.56;;;9.22;63.55
13387;BME280;6763;48.524;9.044;2023-12-14T00:50:00;96786.13;;;9.76;63.86
13387;BME280;6763;48.524;9.044;2023-12-14T00:52:26;96787.84;;;9.77;63.88
13387;BME280;6763;48.524;9.044;2023-12-14T00:54:52;96788.03;;;9.71;63.39
13387;BME280;6763;48.524;9.044;2023-12-14T00:57:17;96783.78;;;9.68;63.68
13387;BME280;6763;48.524;9.044;2023-12-14T00:59:42;96767.84;;;9.56;63.17
13387;BME280;6763;48.524;9.044;2023-12-14T01:02:07;96788.09;;;9.69;63.89
13387;BME280;6763;48.524;9.044;2023-12-14T01:04:33;96755.09;;;9.50;63.55
13387;BME280;6763;48.524;9.044;2023-12-14T01:06:58;96786.38;;;9.68;63.71
13387;BME280;6763;48.524;9.044;2023-12-14T01:09:23;96783.88;;;9.65;63.55
13387;BME280;6763;48.524;9.044;2023-12-14T01:11:49;96772.84;;;9.60;63.41
13387;BME280;6763;48.524;9.044;2023-12-14T01:14:14;96814.31;;;9.83;63.41
13387;BME280;6763;48.524;9.044;2023-12-14T01:16:39;96812.66;;;9.82;63.69
13387;BME280;6763;48.524;9.044;2023-12-14T01:19:05;96809.38;;;9.77;63.14
13387;BME280;6763;48.524;9.044;2023-12-14T01:21:33;96830.66;;;9.85;63.57
13387;BME280;6763;48.524;9.044;2023-12-14T01:23:58;96829.78;;;9.85;63.80
13387;BME280;6763;48.524;9.044;2023-12-14T01:26:25;96806.91;;;9.73;63.49
13387;BME280;6763;48.524;9.044;2023-12-14T01:28:51;96817.91;;;9.79;63.08
13387;BME280;6763;48.524;9.044;2023-12-14T01:31:16;96801.97;;;9.65;63.53
13387;BME280;6763;48.524;9.044;2023-12-14T01:33:41;96839.22;;;9.86;63.43
13387;BME280;6763;48.524;9.044;2023-12-14T01:36:07;96834.19;;;9.81;63.28
13387;BME280;6763;48.524;9.044;2023-12-14T01:38:32;96818.94;;;9.74;63.74
13387;BME280;6763;48.524;9.044;2023-12-14T01:40:58;96844.38;;;9.86;63.48
13387;BME280;6763;48.524;9.044;2023-12-14T01:43:24;96871.47;;;10.02;63.71
13387;BME280;6763;48.524;9.044;2023-12-14T01:45:49;96865.44;;;10.02;63.17
13387;BME280;6763;48.524;9.044;2023-12-14T01:48:15;96862.97;;;9.98;63.67
13387;BME280;6763;48.524;9.044;2023-12-14T01:50:40;96859.56;;;9.96;63.24
13387;BME280;6763;48.524;9.044;2023-12-14T01:53:05;96846.19;;;9.84;63.63
13387;BME280;6763;48.524;9.044;2023-12-14T01:55:31;96881.78;;;10.04;63.41
13387;BME280;6763;48.524;9.044;2023-12-14T01:57:56;96846.41;;;9.76;63.44
13387;BME280;6763;48.524;9.044;2023-12-14T02:00:45;96853.09;;;9.83;63.53
13387;BME280;6763;48.524;9.044;2023-12-14T02:03:15;96870.22;;;9.86;63.45
13387;BME280;6763;48.524;9.044;2023-12-14T02:05:41;96865.22;;;9.81;63.34
13387;BME280;6763;48.524;9.044;2023-12-14T02:08:06;96888.84;;;9.97;63.57
13387;BME280;6763;48.524;9.044;2023-12-14T02:10:32;96861.88;;;9.78;63.52
13387;BME280;6763;48.524;9.044;2023-12-14T02:12:57;96889.88;;;9.91;63.69
13387;BME280;6763;48.524;9.044;2023-12-14T02:15:23;96897.69;;;9.90;63.37
13387;BME280;6763;48.524;9.044;2023-12-14T02:17:48;96871.31;;;9.79;63.70
13387;BME280;6763;48.524;9.044;2023-12-14T02:20:13;96884.94;;;9.84;63.40
13387;BME280;6763;48.524;9.044;2023-12-14T02:22:52;96909.53;;;9.97;63.66
13387;BME280;6763;48.524;9.044;2023-12-14T02:25:19;96898.63;;;9.87;63.46
13387;BME280;6763;48.524;9.044;2023-12-14T02:27:44;96912.19;;;9.94;63.16
13387;BME280;6763;48.524;9.044;2023-12-14T02:30:11;96916.56;;;9.92;63.30
13387;BME280;6763;48.524;9.044;2023-12-14T02:32:37;96880.25;;;9.69;63.90
13387;BME280;6763;48.524;9.044;2023-12-14T02:35:03;96892.06;;;9.76;63.79
13387;BME280;6763;48.524;9.044;2023-12-14T02:37:28;96887.13;;;9.68;63.81
13387;BME280;6763;48.524;9.044;2023-12-14T02:39:53;96901.69;;;9.72;63.68
13387;BME280;6763;48.524;9.044;2023-12-14T02:42:19;96895.81;;;9.67;63.71
13387;BME280;6763;48.524;9.044;2023-12-14T02:44:44;96906.94;;;9.69;64.04
13387;BME280;6763;48.524;9.044;2023-12-14T02:47:09;96916.28;;;9.73;63.97
13387;BME280;6763;48.524;9.044;2023-12-14T02:49:34;96915.31;;;9.77;63.97
13387;BME280;6763;48.524;9.044;2023-12-14T02:52:00;96912.94;;;9.70;63.57
13387;BME280;6763;48.524;9.044;2023-12-14T02:54:25;96872.00;;;9.56;63.57
13387;BME280;6763;48.524;9.044;2023-12-14T02:56:50;96911.19;;;9.70;63.88
13387;BME280;6763;48.524;9.044;2023-12-14T02:59:15;96927.91;;;9.88;64.00
13387;BME280;6763;48.524;9.044;2023-12-14T03:01:41;96922.22;;;9.77;64.06
13387;BME280;6763;48.524;9.044;2023-12-14T03:04:07;96917.75;;;9.82;63.71
13387;BME280;6763;48.524;9.044;2023-12-14T03:06:33;96941.56;;;9.91;63.91
13387;BME280;6763;48.524;9.044;2023-12-14T03:08:58;96909.22;;;9.78;63.85
13387;BME280;6763;48.524;9.044;2023-12-14T03:11:23;96935.59;;;9.89;64.04
13387;BME280;6763;48.524;9.044;2023-12-14T03:13:49;96911.09;;;9.73;63.56
13387;BME280;6763;48.524;9.044;2023-12-14T03:16:14;96944.25;;;9.88;63.72
13387;BME280;6763;48.524;9.044;2023-12-14T03:18:39;96957.06;;;9.91;63.65
13387;BME280;6763;48.524;9.044;2023-12-14T03:21:05;96948.75;;;9.82;63.75
13387;BME280;6763;48.524;9.044;2023-12-14T03:23:30;96974.31;;;9.91;63.96
13387;BME280;6763;48.524;9.044;2023-12-14T03:25:55;96926.03;;;9.64;64.07
13387;BME280;6763;48.524;9.044;2023-12-14T03:28:20;96953.88;;;9.83;63.63
13387;BME280;6763;48.524;9.044;2023-12-14T03:30:46;96967.47;;;9.90;63.61
13387;BME280;6763;48.524;9.044;2023-12-14T03:33:11;96975.16;;;9.91;63.88
13387;BME280;6763;48.524;9.044;2023-12-14T03:35:36;96927.81;;;9.62;63.62
13387;BME280;6763;48.524;9.044;2023-12-14T03:38:02;96976.91;;;9.91;63.64
13387;BME280;6763;48.524;9.044;2023-12-14T03:40:27;96901.91;;;9.34;63.76
13387;BME280;6763;48.524;9.044;2023-12-14T03:42:52;96932.28;;;9.57;64.15
13387;BME280;6763;48.524;9.044;2023-12-14T03:45:17;96972.00;;;9.82;63.71
13387;BME280;6763;48.524;9.044;2023-12-14T03:47:43;96956.69;;;9.76;64.11
13387;BME280;6763;48.524;9.044;2023-12-14T03:50:11;96982.91;;;9.93;64.21
13387;BME280;6763;48.524;9.044;2023-12-14T03:52:36;96974.38;;;9.89;63.88
13387;BME280;6763;48.524;9.044;2023-12-14T03:55:01;96988.06;;;9.93;63.73
13387;BME280;6763;48.524;9.044;2023-12-14T03:57:27;96963.72;;;9.71;63.94
13387;BME280;6763;48.524;9.044;2023-12-14T03:59:52;96984.22;;;9.77;63.75
13387;BME280;6763;48.524;9.044;2023-12-14T04:02:17;96984.16;;;9.78;63.78
13387;BME280;6763;48.524;9.044;2023-12-14T04:04:43;96886.03;;;9.17;64.06
13387;BME280;6763;48.524;9.044;2023-12-14T04:07:08;97007.19;;;9.86;63.99
13387;BME280;6763;48.524;9.044;2023-12-14T04:09:33;96986.16;;;9.69;63.68
13387;BME280;6763;48.524;9.044;2023-12-14T04:11:59;96987.88;;;9.70;63.71
13387;BME280;6763;48.524;9.044;2023-12-14T04:14:24;97021.75;;;9.90;64.40
13387;BME280;6763;48.524;9.044;2023-12-14T04:16:49;97021.13;;;9.82;64.32
13387;BME280;6763;48.524;9.044;2023-12-14T04:19:14;97049.91;;;9.99;64.10
13387;BME280;6763;48.524;9.044;2023-12-14T04:21:40;97034.69;;;9.90;63.86
13387;BME280;6763;48.524;9.044;2023-12-14T04:24:05;97047.47;;;9.94;64.06
13387;BME280;6763;48.524;9.044;2023-12-14T04:26:31;96990.69;;;9.61;64.14
13387;BME280;6763;48.524;9.044;2023-12-14T04:28:56;97061.06;;;10.01;64.03
13387;BME280;6763;48.524;9.044;2023-12-14T04:31:21;97042.44;;;9.88;64.04
13387;BME280;6763;48.524;9.044;2023-12-14T04:33:47;97057.75;;;9.96;64.24
13387;BME280;6763;48.524;9.044;2023-12-14T04:36:12;97056.16;;;9.92;64.06
13387;BME280;6763;48.524;9.044;2023-12-14T04:38:37;97022.97;;;9.77;64.31
13387;BME280;6763;48.524;9.044;2023-12-14T04:41:02;97056.88;;;9.97;64.14
13387;BME280;6763;48.524;9.044;2023-12-14T04:43:28;97022.19;;;9.75;63.95
13387;BME280;6763;48.524;9.044;2023-12-14T04:45:55;97064.59;;;9.98;64.56
13387;BME280;6763;48.524;9.044;2023-12-14T04:48:20;97081.50;;;10.10;64.37
13387;BME280;6763;48.524;9.044;2023-12-14T04:50:46;97046.78;;;9.88;64.24
13387;BME280;6763;48.524;9.044;2023-12-14T04:53:11;97076.41;;;10.07;64.01
13387;BME280;6763;48.524;9.044;2023-12-14T04:55:36;97062.97;;;9.94;64.02
13387;BME280;6763;48.524;9.044;2023-12-14T04:58:02;97090.94;;;10.11;64.06
13387;BME280;6763;48.524;9.044;2023-12-14T05:00:27;97040.91;;;9.83;64.31
13387;BME280;6763;48.524;9.044;2023-12-14T05:02:52;97042.72;;;9.79;64.23
13387;BME280;6763;48.524;9.044;2023-12-14T05:05:18;97102.97;;;10.14;64.01
13387;BME280;6763;48.524;9.044;2023-12-14T05:07:43;97060.59;;;9.87;64.27
13387;BME280;6763;48.524;9.044;2023-12-14T05:10:08;97113.38;;;10.11;64.08
13387;BME280;6763;48.524;9.044;2023-12-14T05:12:35;97083.00;;;9.86;63.95
13387;BME280;6763;48.524;9.044;2023-12-14T05:15:00;97107.56;;;10.03;64.36
13387;BME280;6763;48.524;9.044;2023-12-14T05:17:25;97133.09;;;10.15;64.03
13387;BME280;6763;48.524;9.044;2023-12-14T05:19:50;97126.28;;;10.12;64.56
13387;BME280;6763;48.524;9.044;2023-12-14T05:22:16;97111.94;;;10.01;64.33
13387;BME280;6763;48.524;9.044;2023-12-14T05:24:41;97060.25;;;9.68;64.16
13387;BME280;6763;48.524;9.044;2023-12-14T05:27:06;97128.16;;;10.06;64.05
13387;BME280;6763;48.524;9.044;2023-12-14T05:29:31;97129.97;;;10.02;64.36
13387;BME280;6763;48.524;9.044;2023-12-14T05:31:58;97134.91;;;10.11;64.03
13387;BME280;6763;48.524;9.044;2023-12-14T05:34:23;97141.09;;;10.06;64.11
13387;BME280;6763;48.524;9.044;2023-12-14T05:36:49;97123.22;;;9.96;64.39
13387;BME280;6763;48.524;9.044;2023-12-14T05:39:14;97150.56;;;10.05;64.33
13387;BME280;6763;48.524;9.044;2023-12-14T05:41:40;97162.50;;;10.09;64.09
13387;BME280;6763;48.524;9.044;2023-12-14T05:44:06;97166.75;;;10.12;64.38
13387;BME280;6763;48.524;9.044;2023-12-14T05:46:31;97169.28;;;10.15;64.07
13387;BME280;6763;48.524;9.044;2023-12-14T05:48:56;97176.75;;;10.25;64.39
13387;BME280;6763;48.524;9.044;2023-12-14T05:51:40;97186.25;;;10.26;64.22
13387;BME280;6763;48.524;9.044;2023-12-14T05:54:05;97161.59;;;10.13;63.93
13387;BME280;6763;48.524;9.044;2023-12-14T05:56:31;97158.19;;;10.10;64.10
13387;BME280;6763;48.524;9.044;2023-12-14T05:58:57;97184.59;;;10.22;63.92
13387;BME280;6763;48.524;9.044;2023-12-14T06:01:23;97194.84;;;10.27;64.17
13387;BME280;6763;48.524;9.044;2023-12-14T06:03:48;97172.78;;;10.14;64.41
13387;BME280;6763;48.524;9.044;2023-12-14T06:06:13;97204.22;;;10.31;64.49
13387;BME280;6763;48.524;9.044;2023-12-14T06:08:39;97183.94;;;10.16;64.26
13387;BME280;6763;48.524;9.044;2023-12-14T06:11:05;97203.44;;;10.27;64.47
13387;BME280;6763;48.524;9.044;2023-12-14T06:13:33;97198.38;;;10.24;63.77
13387;BME280;6763;48.524;9.044;2023-12-14T06:15:59;97206.13;;;10.24;64.24
13387;BME280;6763;48.524;9.044;2023-12-14T06:18:24;97239.19;;;10.44;64.47
13387;BME280;6763;48.524;9.044;2023-12-14T06:20:50;97206.16;;;10.23;64.39
13387;BME280;6763;48.524;9.044;2023-12-14T06:23:15;97190.06;;;10.10;63.95
13387;BME280;6763;48.524;9.044;2023-12-14T06:25:40;97115.34;;;9.69;63.92
13387;BME280;6763;48.524;9.044;2023-12-14T06:28:05;97228.28;;;10.33;64.03
13387;BME280;6763;48.524;9.044;2023-12-14T06:30:31;97179.16;;;9.99;64.17
13387;BME280;6763;48.524;9.044;2023-12-14T06:32:56;97207.94;;;10.21;64.07
13387;BME280;6763;48.524;9.044;2023-12-14T06:35:21;97264.19;;;10.45;64.38
13387;BME280;6763;48.524;9.044;2023-12-14T06:37:47;97241.28;;;10.30;64.20
13387;BME280;6763;48.524;9.044;2023-12-14T06:40:12;97192.09;;;9.99;64.52
13387;BME280;6763;48.524;9.044;2023-12-14T06:42:38;97185.34;;;9.93;64.25
13387;BME280;6763;48.524;9.044;2023-12-14T06:45:03;97256.75;;;10.33;64.47
13387;BME280;6763;48.524;9.044;2023-12-14T06:47:29;97262.75;;;10.35;64.34
13387;BME280;6763;48.524;9.044;2023-12-14T06:49:54;97214.22;;;10.09;64.39
13387;BME280;6763;48.524;9.044;2023-12-14T06:52:22;97279.66;;;10.46;64.34
13387;BME280;6763;48.524;9.044;2023-12-14T06:54:47;97293.41;;;10.48;64.48
13387;BME280;6763;48.524;9.044;2023-12-14T06:57:12;97261.25;;;10.25;64.05
13387;BME280;6763;48.524;9.044;2023-12-14T06:59:37;97265.88;;;10.14;64.67
13387;BME280;6763;48.524;9.044;2023-12-14T07:02:03;97255.66;;;10.08;64.53
13387;BME280;6763;48.524;9.044;2023-12-14T07:04:28;97296.50;;;10.29;64.32
13387;BME280;6763;48.524;9.044;2023-12-14T07:06:53;97317.00;;;10.36;64.25
13387;BME280;6763;48.524;9.044;2023-12-14T07:09:19;97281.41;;;10.12;64.48
13387;BME280;6763;48.524;9.044;2023-12-14T07:11:44;97277.19;;;10.07;64.50
13387;BME280;6763;48.524;9.044;2023-12-14T07:14:10;97281.56;;;10.06;64.18
13387;BME280;6763;48.524;9.044;2023-12-14T07:16:36;97302.91;;;10.14;64.58
13387;BME280;6763;48.524;9.044;2023-12-14T07:19:01;97349.66;;;10.40;64.73
13387;BME280;6763;48.524;9.044;2023-12-14T07:21:26;97347.19;;;10.36;64.56
13387;BME280;6763;48.524;9.044;2023-12-14T07:23:52;97335.31;;;10.29;64.47
13387;BME280;6763;48.524;9.044;2023-12-14T07:26:17;97337.91;;;10.29;64.72
13387;BME280;6763;48.524;9.044;2023-12-14T07:28:43;97347.28;;;10.33;64.85
13387;BME280;6763;48.524;9.044;2023-12-14T07:31:08;97348.94;;;10.35;64.32
13387;BME280;6763;48.524;9.044;2023-12-14T07:33:33;97252.97;;;9.77;64.74
13387;BME280;6763;48.524;9.044;2023-12-14T07:35:59;97368.50;;;10.45;64.49
13387;BME280;6763;48.524;9.044;2023-12-14T07:38:24;97367.81;;;10.39;64.33
13387;BME280;6763;48.524;9.044;2023-12-14T07:40:49;97374.59;;;10.44;64.89
13387;BME280;6763;48.524;9.044;2023-12-14T07:43:15;97368.56;;;10.44;65.00
13387;BME280;6763;48.524;9.044;2023-12-14T07:45:40;97380.63;;;10.43;64.72
13387;BME280;6763;48.524;9.044;2023-12-14T07:48:06;97398.47;;;10.55;64.66
13387;BME280;6763;48.524;9.044;2023-12-14T07:50:31;97384.09;;;10.44;64.32
13387;BME280;6763;48.524;9.044;2023-12-14T07:52:56;97387.44;;;10.47;64.82
13387;BME280;6763;48.524;9.044;2023-12-14T07:55:22;97413.88;;;10.58;64.76
13387;BME280;6763;48.524;9.044;2023-12-14T07:57:47;97403.72;;;10.51;64.57
13387;BME280;6763;48.524;9.044;2023-12-14T08:00:14;97419.91;;;10.61;64.57
13387;BME280;6763;48.524;9.044;2023-12-14T08:02:39;97395.28;;;10.44;64.72
13387;BME280;6763;48.524;9.044;2023-12-14T08:05:05;97415.72;;;10.55;64.67
13387;BME280;6763;48.524;9.044;2023-12-14T08:07:31;97412.34;;;10.53;64.51
13387;BME280;6763;48.524;9.044;2023-12-14T08:09:57;97411.50;;;10.51;64.58
13387;BME280;6763;48.524;9.044;2023-12-14T08:12:23;97434.41;;;10.66;64.84
13387;BME280;6763;48.524;9.044;2023-12-14T08:14:48;97414.72;;;10.61;64.54
13387;BME280;6763;48.524;9.044;2023-12-14T08:17:14;97453.00;;;10.82;64.28
13387;BME280;6763;48.524;9.044;2023-12-14T08:19:39;97456.34;;;10.87;64.74
13387;BME280;6763;48.524;9.044;2023-12-14T08:22:04;97464.13;;;10.87;64.43
13387;BME280;6763;48.524;9.044;2023-12-14T08:24:30;97430.09;;;10.67;64.41
13387;BME280;6763;48.524;9.044;2023-12-14T08:26:55;97414.88;;;10.54;64.52
13387;BME280;6763;48.524;9.044;2023-12-14T08:29:20;97456.56;;;10.78;64.25
13387;BME280;6763;48.524;9.044;2023-12-14T08:31:46;97477.16;;;10.82;64.16
13387;BME280;6763;48.524;9.044;2023-12-14T08:34:11;97491.63;;;10.91;64.18
13387;BME280;6763;48.524;9.044;2023-12-14T08:36:36;97482.31;;;10.82;64.08
13387;BME280;6763;48.524;9.044;2023-12-14T08:39:02;97467.09;;;10.70;64.18
13387;BME280;6763;48.524;9.044;2023-12-14T08:41:27;97490.94;;;10.83;64.61
13387;BME280;6763;48.524;9.044;2023-12-14T08:43:52;97505.44;;;10.90;64.75
13387;BME280;6763;48.524;9.044;2023-12-14T08:46:18;97504.63;;;10.89;64.68
13387;BME280;6763;48.524;9.044;2023-12-14T08:48:44;97507.09;;;10.94;64.93
13387;BME280;6763;48.524;9.044;2023-12-14T08:51:09;97495.13;;;10.88;64.81
13387;BME280;6763;48.524;9.044;2023-12-14T08:53:34;97500.16;;;10.94;64.76
13387;BME280;6763;48.524;9.044;2023-12-14T08:55:59;97510.34;;;11.00;64.35
13387;BME280;6763;48.524;9.044;2023-12-14T08:58:25;97462.78;;;10.71;64.60
13387;BME280;6763;48.524;9.044;2023-12-14T09:00:50;97526.34;;;11.17;64.53
13387;BME280;6763;48.524;9.044;2023-12-14T09:03:19;97511.00;;;11.10;64.64
13387;BME280;6763;48.524;9.044;2023-12-14T09:05:44;97539.09;;;11.25;64.75
13387;BME280;6763;48.524;9.044;2023-12-14T09:08:10;97552.63;;;11.36;64.78
13387;BME280;6763;48.524;9.044;2023-12-14T09:10:35;97551.69;;;11.39;64.66
13387;BME280;6763;48.524;9.044;2023-12-14T09:13:01;97555.13;;;11.41;64.41
13387;BME280;6763;48.524;9.044;2023-12-14T09:15:33;97514.16;;;11.21;64.55
13387;BME280;6763;48.524;9.044;2023-12-14T09:17:58;97537.91;;;11.38;64.44
13387;BME280;6763;48.524;9.044;2023-12-14T09:20:24;97552.25;;;11.51;64.45
13387;BME280;6763;48.524;9.044;2023-12-14T09:22:49;97563.34;;;11.56;64.35
13387;BME280;6763;48.524;9.044;2023-12-14T09:25:15;97534.25;;;11.45;64.24
13387;BME280;6763;48.524;9.044;2023-12-14T09:27:40;97531.78;;;11.41;64.40
13387;BME280;6763;48.524;9.044;2023-12-14T09:30:06;97542.84;;;11.47;63.86
13387;BME280;6763;48.524;9.044;2023-12-14T09:32:32;97552.13;;;11.56;64.08
13387;BME280;6763;48.524;9.044;2023-12-14T09:34:58;97574.19;;;11.72;64.38
13387;BME280;6763;48.524;9.044;2023-12-14T09:37:23;97576.53;;;11.81;64.42
13387;BME280;6763;48.524;9.044;2023-12-14T09:39:49;97533.00;;;11.60;64.30
13387;BME280;6763;48.524;9.044;2023-12-14T09:42:16;97588.25;;;11.96;64.27
13387;BME280;6763;48.524;9.044;2023-12-14T09:44:43;97594.03;;;12.05;63.93
13387;BME280;6763;48.524;9.044;2023-12-14T09:47:08;97597.34;;;12.10;63.37
13387;BME280;6763;48.524;9.044;2023-12-14T09:49:35;97585.44;;;12.03;63.03
13387;BME280;6763;48.524;9.044;2023-12-14T09:52:01;97600.06;;;12.06;62.92
13387;BME280;6763;48.524;9.044;2023-12-14T09:54:27;97613.78;;;12.09;62.90
13387;BME280;6763;48.524;9.044;2023-12-14T09:56:53;97610.31;;;12.10;63.05
13387;BME280;6763;48.524;9.044;2023-12-14T09:59:19;97619.19;;;12.32;63.69
13387;BME280;6763;48.524;9.044;2023-12-14T10:01:45;97618.66;;;12.51;62.90
13387;BME280;6763;48.524;9.044;2023-12-14T10:04:15;97625.19;;;12.64;62.21
13387;BME280;6763;48.524;9.044;2023-12-14T10:06:43;97599.84;;;12.44;61.88
13387;BME280;6763;48.524;9.044;2023-12-14T10:09:09;97617.09;;;12.45;62.12
13387;BME280;6763;48.524;9.044;2023-12-14T10:11:35;97533.16;;;11.86;62.34
13387;BME280;6763;48.524;9.044;2023-12-14T10:14:02;97648.56;;;12.64;62.98
13387;BME280;6763;48.524;9.044;2023-12-14T10:16:30;97642.91;;;12.79;62.76
13387;BME280;6763;48.524;9.044;2023-12-14T10:18:57;97654.63;;;12.93;62.46
13387;BME280;6763;48.524;9.044;2023-12-14T10:21:25;97651.69;;;13.04;62.02
13387;BME280;6763;48.524;9.044;2023-12-14T10:23:51;97656.84;;;13.05;60.95
13387;BME280;6763;48.524;9.044;2023-12-14T10:26:16;97654.53;;;12.96;61.19
13387;BME280;6763;48.524;9.044;2023-12-14T10:28:41;97665.00;;;12.93;61.12
13387;BME280;6763;48.524;9.044;2023-12-14T10:31:07;97659.34;;;12.79;61.21
13387;BME280;6763;48.524;9.044;2023-12-14T10:33:35;97668.31;;;12.69;61.33
13387;BME280;6763;48.524;9.044;2023-12-14T10:36:00;97665.31;;;12.54;61.57
13387;BME280;6763;48.524;9.044;2023-12-14T10:38:28;97666.22;;;12.53;61.29
13387;BME280;6763;48.524;9.044;2023-12-14T10:40:55;97665.38;;;12.51;61.79
13387;BME280;6763;48.524;9.044;2023-12-14T10:43:22;97668.91;;;12.50;61.83
13387;BME280;6763;48.524;9.044;2023-12-14T10:45:47;97680.13;;;12.50;62.11
13387;BME280;6763;48.524;9.044;2023-12-14T10:48:13;97681.75;;;12.54;61.60
13387;BME280;6763;48.524;9.044;2023-12-14T10:50:42;97667.25;;;12.45;62.07
13387;BME280;6763;48.524;9.044;2023-12-14T10:53:07;97678.44;;;12.49;61.83
13387;BME280;6763;48.524;9.044;2023-12-14T10:55:37;97686.06;;;12.55;62.03
13387;BME280;6763;48.524;9.044;2023-12-14T10:58:05;97686.88;;;12.56;61.72
13387;BME280;6763;48.524;9.044;2023-12-14T11:00:31;97690.38;;;12.55;61.59
13387;BME280;6763;48.524;9.044;2023-12-14T11:02:57;97685.84;;;12.63;61.55
13387;BME280;6763;48.524;9.044;2023-12-14T11:05:23;97665.31;;;12.54;61.80
13387;BME280;6763;48.524;9.044;2023-12-14T11:07:56;97674.44;;;12.67;61.98
13387;BME280;6763;48.524;9.044;2023-12-14T11:10:42;97686.03;;;12.86;61.70
13387;BME280;6763;48.524;9.044;2023-12-14T11:13:13;97645.88;;;12.68;61.91
13387;BME280;6763;48.524;9.044;2023-12-14T11:15:40;97664.31;;;12.88;61.79
13387;BME280;6763;48.524;9.044;2023-12-14T11:23:18;97674.72;;;13.44;61.87
13387;BME280;6763;48.524;9.044;2023-12-14T11:26:04;97691.28;;;13.94;60.52
13387;BME280;6763;48.524;9.044;2023-12-14T11:28:35;97689.53;;;13.94;60.26
13387;BME280;6763;48.524;9.044;2023-12-14T11:31:02;97681.31;;;13.80;59.74
13387;BME280;6763;48.524;9.044;2023-12-14T11:33:28;97700.09;;;13.90;60.26
13387;BME280;6763;48.524;9.044;2023-12-14T11:35:54;97699.50;;;14.08;59.97
13387;BME280;6763;48.524;9.044;2023-12-14T11:38:20;97697.97;;;14.52;59.13
13387;BME280;6763;48.524;9.044;2023-12-14T11:40:46;97692.44;;;14.84;58.90
13387;BME280;6763;48.524;9.044;2023-12-14T11:43:13;97709.34;;;15.42;58.31
13387;BME280;6763;48.524;9.044;2023-12-14T11:45:40;97708.03;;;15.95;57.22
13387;BME280;6763;48.524;9.044;2023-12-14T11:48:09;97719.19;;;16.41;56.47
13387;BME280;6763;48.524;9.044;2023-12-14T11:50:36;97718.97;;;16.45;55.53
13387;BME280;6763;48.524;9.044;2023-12-14T11:53:03;97713.25;;;16.17;55.19
13387;BME280;6763;48.524;9.044;2023-12-14T11:55:29;97734.22;;;15.94;55.36
13387;BME280;6763;48.524;9.044;2023-12-14T11:57:58;97736.44;;;15.61;55.60
13387;BME280;6763;48.524;9.044;2023-12-14T12:00:25;97733.88;;;15.36;55.49
13387;BME280;6763;48.524;9.044;2023-12-14T12:02:52;97734.28;;;15.04;55.86
13387;BME280;6763;48.524;9.044;2023-12-14T12:05:17;97717.97;;;14.74;56.26
13387;BME280;6763;48.524;9.044;2023-12-14T12:07:45;97741.72;;;14.67;56.40
13387;BME280;6763;48.524;9.044;2023-12-14T12:10:11;97747.47;;;14.52;55.69
13387;BME280;6763;48.524;9.044;2023-12-14T12:12:36;97727.53;;;14.24;56.33
13387;BME280;6763;48.524;9.044;2023-12-14T12:15:03;97740.66;;;14.21;56.75
13387;BME280;6763;48.524;9.044;2023-12-14T12:17:28;97722.47;;;13.95;56.99
13387;BME280;6763;48.524;9.044;2023-12-14T12:19:53;97741.53;;;13.96;56.80
13387;BME280;6763;48.524;9.044;2023-12-14T12:22:19;97731.91;;;13.72;57.06
13387;BME280;6763;48.524;9.044;2023-12-14T12:24:44;97749.97;;;13.76;57.60
13387;BME280;6763;48.524;9.044;2023-12-14T12:27:09;97760.44;;;13.75;57.43
13387;BME280;6763;48.524;9.044;2023-12-14T12:29:35;97741.72;;;13.63;56.95
13387;BME280;6763;48.524;9.044;2023-12-14T12:32:00;97748.72;;;13.61;57.11
13387;BME280;6763;48.524;9.044;2023-12-14T12:34:25;97747.19;;;13.54;56.98
13387;BME280;6763;48.524;9.044;2023-12-14T12:36:51;97749.88;;;13.51;57.09
13387;BME280;6763;48.524;9.044;2023-12-14T12:39:16;97756.66;;;13.57;57.25
13387;BME280;6763;48.524;9.044;2023-12-14T12:41:42;97737.72;;;13.52;57.39
13387;BME280;6763;48.524;9.044;2023-12-14T12:44:07;97752.66;;;13.73;56.95
13387;BME280;6763;48.524;9.044;2023-12-14T12:46:38;97754.78;;;13.88;56.72
13387;BME280;6763;48.524;9.044;2023-12-14T12:49:04;97750.94;;;14.00;56.93
13387;BME280;6763;48.524;9.044;2023-12-14T12:51:30;97742.09;;;14.05;56.72
13387;BME280;6763;48.524;9.044;2023-12-14T12:53:56;97757.81;;;14.27;56.18
13387;BME280;6763;48.524;9.044;2023-12-14T12:56:23;97747.25;;;14.33;56.14
13387;BME280;6763;48.524;9.044;2023-12-14T12:58:48;97745.16;;;14.43;55.89
13387;BME280;6763;48.524;9.044;2023-12-14T13:01:15;97752.44;;;14.58;55.08
13387;BME280;6763;48.524;9.044;2023-12-14T13:03:40;97769.56;;;14.65;54.67
13387;BME280;6763;48.524;9.044;2023-12-14T13:06:05;97774.13;;;14.58;53.63
13387;BME280;6763;48.524;9.044;2023-12-14T13:08:31;97784.78;;;14.52;53.66
13387;BME280;6763;48.524;9.044;2023-12-14T13:10:56;97785.25;;;14.39;53.89
13387;BME280;6763;48.524;9.044;2023-12-14T13:13:22;97781.25;;;14.27;54.50